FGBT

Bata

Airport
ICAO code
FGBT
Summary
ICAO Region
AFI
ICAO Territory
Location

Bata,

Coordinates
1° 54' 19" N , 9° 48' 20" E
Metar
Observation
FGBT 090900Z 10006KT 9999 SCT010 28/22 Q1014
Station
BATA (RIO MUNI)
Date/Time
2022-08-09 09:00:00
Wind direction
100°
Wind speed
06 kts
Lowest cloud amount
scattered clouds
Temperature
28°C
Dew point
22°C
Humidity
69%
QNH
1014 hPa
Weather condition
n/a

Description

Bata Airport is the second largest airport in Equatorial Guinea, after Malabo Airport, and is the only other paved runway.

Climatology

Runways

Designator Length Width Surface Rops
5/23 0 0 UNK No/No
4/22 2134 45 ASP No/No

Airport map

Aerial View

SKYbrary Partners:

Safety knowledge contributed by: